Αναφορές Αεροδρομίων

 

KSJC - San Jose, California, USA
Distance from station: ΒΑ 14km
Ενημερώθηκε: 25/07/2024 20:53
Αίθριος
Αίθριος
 Ανεμος από ΒΔ
Ανεμος: ΒΔ 9 km/h
Θερμοκρασία: 27°C
Heat Index: 28°C
Σημείο Δρόσου: 16°C
Υγρασία: 51%
Βαρόμετρο: 1017.9 hPa
Clouds: Αίθριος
Visibility: 16 km
2024/07/25 17:53 KSJC 251753Z 32005KT 10SM CLR 27/16 A3006 RMK AO2 SLP179 T02670161 10272 20189 51001
KNUQ - Moffett Nas/Mtn, California, USA
Distance from station: Β 14km
Ενημερώθηκε: 25/07/2024 21:35
Αίθριος
Αίθριος
 Ανεμος από Β
Ανεμος: Β 17 km/h
Θερμοκρασία: 24°C
Σημείο Δρόσου: 17°C
Υγρασία: 65%
Βαρόμετρο: 1018.3 hPa
Clouds: Αίθριος
Visibility: 13 km
2024/07/25 18:35 KNUQ 251835Z AUTO 36009KT 8SM CLR 24/17 A3007 RMK AO2
 
KPAO - Palo Alto, California, USA
Distance from station: ΒΒΔ 23km
Ενημερώθηκε: 25/07/2024 20:47
Αίθριος
Αίθριος
 Ανεμος από Β
Ανεμος: Β 15 km/h
Θερμοκρασία: 22°C
Σημείο Δρόσου: 17°C
Υγρασία: 73%
Βαρόμετρο: 1018.6 hPa
Clouds: Αίθριος
Visibility: 16 km
2024/07/25 17:47 KPAO 251747Z 36008KT 10SM SKC 22/17 A3008
KRHV - San Jose/Reid, California, USA
Distance from station: ΑΒΑ 19km
Ενημερώθηκε: 25/07/2024 20:47
Αίθριος
Αίθριος
 Ανεμος από calm
Ανεμος: Απνοια
Θερμοκρασία: 28°C
Heat Index: 27°C
Σημείο Δρόσου: 13°C
Υγρασία: 40%
Βαρόμετρο: 1018.3 hPa
Clouds: Αίθριος
Visibility: 16 km
2024/07/25 17:47 KRHV 251747Z 00000KT 10SM SKC 28/13 A3007
 
KOAK - Oakland, California, USA
Distance from station: ΒΒΔ 50km
Ενημερώθηκε: 25/07/2024 20:53
Αίθριος
Αίθριος
 Ανεμος από ΔΒΔ
Ανεμος: ΔΒΔ 20 km/h
Θερμοκρασία: 22°C
Σημείο Δρόσου: 16°C
Υγρασία: 69%
Βαρόμετρο: 1018.6 hPa
Clouds: Αίθριος
Visibility: 16 km
2024/07/25 17:53 KOAK 251753Z 30011KT 10SM CLR 22/16 A3008 RMK AO2 SLP186 T02170156 10217 20167 51004
KSQL - San Carlos Airpo, California, USA
Distance from station: ΒΔ 34km
Ενημερώθηκε: 25/07/2024 20:47
Αίθριος
Αίθριος
 Ανεμος από Β
Ανεμος: Β 11 km/h
Θερμοκρασία: 22°C
Σημείο Δρόσου: 17°C
Υγρασία: 73%
Βαρόμετρο: 1019 hPa
Clouds: Αίθριος
Visibility: 16 km
2024/07/25 17:47 KSQL 251747Z 01006KT 10SM CLR 22/17 A3009
 
KSFO - San Francisco, California, USA
Distance from station: ΒΔ 49km
Ενημερώθηκε: 25/07/2024 20:56
Few Clouds
Few Clouds
 Ανεμος από ΒΔ
Ανεμος: ΒΔ 20 km/h
Θερμοκρασία: 20°C
Σημείο Δρόσου: 14°C
Υγρασία: 69%
Βαρόμετρο: 1018.6 hPa
Clouds: Few Clouds
Visibility: 16 km
Cloud details: Few Clouds 183 m
2024/07/25 17:56 KSFO 251756Z 32011KT 10SM FEW006 20/14 A3008 RMK AO2 SLP187 T02000144 10200 20139 53004
KE16 - San Martin, California, USA
Distance from station: ΑΝΑ 43km
Ενημερώθηκε: 25/07/2024 21:35
Αίθριος
Αίθριος
 Ανεμος από ΝΝΑ
Ανεμος: ΝΝΑ 9 km/h
Θερμοκρασία: 29°C
Σημείο Δρόσου: 10°C
Υγρασία: 31%
Βαρόμετρο: 1018.6 hPa
Clouds: Αίθριος
Visibility: 16 km
2024/07/25 18:35 KE16 251835Z AUTO 15005KT 10SM CLR 29/10 A3008 RMK AO2
 
KWVI - Watsonville, California, USA
Distance from station: ΝΝΑ 44km
Ενημερώθηκε: 25/07/2024 20:53
Αίθριος
Αίθριος
 Ανεμος από ΝΝΔ
Ανεμος: ΝΝΔ 7 km/h
Θερμοκρασία: 22°C
Σημείο Δρόσου: 16°C
Υγρασία: 69%
Βαρόμετρο: 1019 hPa
Clouds: Αίθριος
Visibility: 16 km
2024/07/25 17:53 KWVI 251753Z AUTO 20004KT 10SM CLR 22/16 A3009 RMK AO2 SLP188 T02220156 10228 20144 58002
KHAF - Half Moon Bay, California, USA
Distance from station: ΔΒΔ 50km
Ενημερώθηκε: 25/07/2024 21:35
Mist, Συννεφιά
Mist, Συννεφιά
 Ανεμος από varies
Ανεμος: varies 9 km/h
Θερμοκρασία: 15°C
Σημείο Δρόσου: 15°C
Υγρασία: 100%
Βαρόμετρο: 1020 hPa
Περίληψη: Mist
Clouds: Συννεφιά
Visibility: 8 km
Cloud details: Συννεφιά 122 m
2024/07/25 18:35 KHAF 251835Z AUTO VRB05KT 5SM BR OVC004 15/15 A3012 RMK AO2
 
KHWD - Hayward, California, USA
Distance from station: Β 44km
Ενημερώθηκε: 25/07/2024 20:54
Αίθριος
Αίθριος
 Ανεμος από Δ
Ανεμος: Δ 13 km/h
Θερμοκρασία: 24°C
Σημείο Δρόσου: 16°C
Υγρασία: 61%
Βαρόμετρο: 1018.3 hPa
Clouds: Αίθριος
Visibility: 16 km
2024/07/25 17:54 KHWD 251754Z 27007KT 10SM CLR 24/16 A3007 RMK AO2 SLP191 T02440156 10250 20172 51003
KLVK - Livermore, California, USA
Distance from station: ΒΒΑ 51km
Ενημερώθηκε: 25/07/2024 20:53
Αίθριος
Αίθριος
 Ανεμος από ΝΔ
Ανεμος: ΝΔ 13 km/h
Θερμοκρασία: 31°C
Σημείο Δρόσου: 10°C
Υγρασία: 27%
Βαρόμετρο: 1017.3 hPa
Clouds: Αίθριος
Visibility: 16 km
2024/07/25 17:53 KLVK 251753Z 23007KT 10SM CLR 31/10 A3004 RMK AO2 SLP168 T03110100 10311 20194 50000